createdAt,value
2018-04-17T00:00:24.778Z,101101.33
2018-04-17T00:05:41.081Z,101109.94
2018-04-17T00:08:09.751Z,101117.75
2018-04-17T00:10:38.418Z,101112.15
2018-04-17T00:13:07.090Z,101122.11
2018-04-17T00:15:35.736Z,101119.05
2018-04-17T00:18:04.417Z,101120.26
2018-04-17T00:20:33.061Z,101125.66
2018-04-17T00:23:01.730Z,101128.98
2018-04-17T00:25:30.401Z,101127.02
2018-04-17T00:27:59.634Z,101128.95
2018-04-17T00:30:28.287Z,101128.34
2018-04-17T00:32:56.977Z,101131.13
2018-04-17T00:35:25.624Z,101130.46
2018-04-17T00:37:54.299Z,101134.00
2018-04-17T00:40:22.953Z,101140.41
2018-04-17T00:42:51.631Z,101146.97
2018-04-17T00:45:22.336Z,101147.27
2018-04-17T00:47:50.998Z,101150.04
2018-04-17T00:50:19.657Z,101155.20
2018-04-17T00:52:48.349Z,101160.47
2018-04-17T00:55:16.990Z,101161.08
2018-04-17T00:57:47.159Z,101162.44
2018-04-17T01:00:15.832Z,101170.50
2018-04-17T01:02:44.824Z,101173.27
2018-04-17T01:05:13.493Z,101177.02
2018-04-17T01:07:42.151Z,101179.80
2018-04-17T01:10:10.827Z,101185.88
2018-04-17T01:12:39.477Z,101192.28
2018-04-17T01:15:08.154Z,101189.13
2018-04-17T01:17:36.783Z,101186.05
2018-04-17T01:20:05.457Z,101190.53
2018-04-17T01:22:34.114Z,101192.21
2018-04-17T01:25:02.791Z,101194.22
2018-04-17T01:27:31.789Z,101200.08
2018-04-17T01:30:00.473Z,101201.19
2018-04-17T01:32:29.139Z,101205.91
2018-04-17T01:34:57.815Z,101207.81
2018-04-17T01:37:26.463Z,101200.52
2018-04-17T01:39:57.161Z,101212.95
2018-04-17T01:42:25.824Z,101215.49
2018-04-17T01:44:54.532Z,101222.31
2018-04-17T01:47:23.771Z,101220.09
2018-04-17T01:49:52.423Z,101218.41
2018-04-17T01:52:21.129Z,101220.95
2018-04-17T01:54:49.778Z,101225.27
2018-04-17T01:57:18.467Z,101231.92
2018-04-17T01:59:47.139Z,101233.03
2018-04-17T02:02:15.831Z,101231.03
2018-04-17T02:04:44.489Z,101230.80
2018-04-17T02:07:13.180Z,101228.42
2018-04-17T02:09:41.832Z,101233.56
2018-04-17T02:12:10.908Z,101233.25
2018-04-17T02:14:41.330Z,101236.45
2018-04-17T02:17:15.219Z,101240.72
2018-04-17T02:19:44.125Z,101238.07
2018-04-17T02:22:14.054Z,101246.30
2018-04-17T02:24:42.708Z,101245.72
2018-04-17T02:27:11.719Z,101248.20
2018-04-17T02:29:40.375Z,101249.51
2018-04-17T02:32:09.056Z,101259.76
2018-04-17T02:34:37.708Z,101259.33
2018-04-17T02:37:06.402Z,101255.28
2018-04-17T02:39:35.064Z,101259.50
2018-04-17T02:42:03.713Z,101269.20
2018-04-17T02:44:32.409Z,101264.68
2018-04-17T02:47:01.073Z,101266.91
2018-04-17T02:49:30.209Z,101262.27
2018-04-17T02:51:58.871Z,101266.88
2018-04-17T02:54:27.554Z,101269.92
2018-04-17T02:56:56.203Z,101275.35
2018-04-17T02:59:25.108Z,101277.88
2018-04-17T03:01:54.021Z,101280.27
2018-04-17T03:04:24.345Z,101279.41
2018-04-17T03:06:52.992Z,101279.72
2018-04-17T03:09:21.668Z,101283.08
2018-04-17T03:11:50.324Z,101288.58
2018-04-17T03:14:19.014Z,101291.89
2018-04-17T03:16:47.663Z,101292.95
2018-04-17T03:19:16.339Z,101292.36
2018-04-17T03:21:44.997Z,101295.41
2018-04-17T03:24:13.735Z,101298.64
2018-04-17T03:26:42.380Z,101301.65
2018-04-17T03:29:11.087Z,101305.28
2018-04-17T03:31:39.773Z,101310.27
2018-04-17T03:34:08.493Z,101305.20
2018-04-17T03:36:37.161Z,101309.06
2018-04-17T03:39:08.610Z,101309.38
2018-04-17T03:41:37.285Z,101307.27
2018-04-17T03:44:05.978Z,101310.31
2018-04-17T03:46:34.669Z,101314.69
2018-04-17T03:49:03.366Z,101320.80
2018-04-17T03:51:32.077Z,101323.14
2018-04-17T03:54:00.736Z,101322.67
2018-04-17T03:56:29.425Z,101325.17
2018-04-17T03:58:58.079Z,101328.65
2018-04-17T04:01:26.756Z,101335.09
2018-04-17T04:03:55.403Z,101337.23
2018-04-17T04:06:24.096Z,101341.17
2018-04-17T04:08:52.756Z,101341.16
2018-04-17T04:11:21.441Z,101350.97
2018-04-17T04:13:50.089Z,101346.05
2018-04-17T04:16:55.738Z,101353.55
2018-04-17T04:20:02.992Z,101361.12
2018-04-17T04:23:08.521Z,101369.44
2018-04-17T04:25:45.927Z,101374.22
2018-04-17T04:28:14.625Z,101377.62
2018-04-17T04:30:43.458Z,101381.60
2018-04-17T04:33:12.161Z,101387.31
2018-04-17T04:35:40.810Z,101391.95
2018-04-17T04:38:09.461Z,101397.85
2018-04-17T04:40:38.209Z,101396.77
2018-04-17T04:43:06.871Z,101406.91
2018-04-17T04:45:35.550Z,101405.89
2018-04-17T04:48:04.192Z,101408.16
2018-04-17T04:50:33.146Z,101406.48
2018-04-17T04:53:01.785Z,101418.12
2018-04-17T04:55:30.457Z,101420.30
2018-04-17T04:57:59.106Z,101422.88
2018-04-17T05:00:27.790Z,101423.23
2018-04-17T05:02:56.426Z,101431.08
2018-04-17T05:05:25.099Z,101436.58
2018-04-17T05:07:53.755Z,101442.44
2018-04-17T05:10:22.489Z,101448.45
2018-04-17T05:12:51.160Z,101449.55
2018-04-17T05:15:19.815Z,101442.16
2018-04-17T05:17:48.458Z,101447.94
2018-04-17T05:20:17.144Z,101449.44
2018-04-17T05:22:45.791Z,101465.29
2018-04-17T05:25:14.454Z,101465.03
2018-04-17T05:27:43.131Z,101468.41
2018-04-17T05:30:11.772Z,101478.38
2018-04-17T05:32:40.438Z,101481.88
2018-04-17T05:35:09.075Z,101481.14
2018-04-17T05:37:37.764Z,101485.27
2018-04-17T05:40:06.416Z,101487.07
2018-04-17T05:42:35.069Z,101488.98
2018-04-17T05:45:03.709Z,101493.78
2018-04-17T05:47:32.343Z,101499.17
2018-04-17T05:50:01.088Z,101509.88
2018-04-17T05:52:29.771Z,101510.30
2018-04-17T05:54:58.365Z,101518.61
2018-04-17T05:57:26.998Z,101528.23
2018-04-17T05:59:55.778Z,101533.16
2018-04-17T06:02:24.417Z,101538.13
2018-04-17T06:04:53.017Z,101544.59
2018-04-17T06:07:21.645Z,101546.29
2018-04-17T06:09:50.254Z,101544.61
2018-04-17T06:12:18.850Z,101552.13
2018-04-17T06:14:47.497Z,101550.39
2018-04-17T06:17:16.112Z,101555.84
2018-04-17T06:19:44.760Z,101557.34
2018-04-17T06:22:13.368Z,101562.76
2018-04-17T06:24:42.013Z,101564.69
2018-04-17T06:27:10.614Z,101573.21
2018-04-17T06:29:39.253Z,101573.74
2018-04-17T06:32:07.861Z,101580.55
2018-04-17T06:34:36.500Z,101584.68
2018-04-17T06:37:05.105Z,101583.39
2018-04-17T06:39:33.742Z,101587.67
2018-04-17T06:42:02.369Z,101592.14
2018-04-17T06:44:30.983Z,101594.30
2018-04-17T06:46:59.588Z,101597.58
2018-04-17T06:49:28.222Z,101603.06
2018-04-17T06:51:56.828Z,101603.36
2018-04-17T06:54:25.476Z,101609.16
2018-04-17T06:56:54.074Z,101611.62
2018-04-17T06:59:24.964Z,101614.02
2018-04-17T07:01:53.579Z,101627.09
2018-04-17T07:04:22.190Z,101625.80
2018-04-17T07:06:50.843Z,101634.19
2018-04-17T07:09:19.450Z,101637.15
2018-04-17T07:11:48.089Z,101633.95
2018-04-17T07:14:16.689Z,101637.66
2018-04-17T07:16:45.327Z,101645.17
2018-04-17T07:19:13.934Z,101643.70
2018-04-17T07:21:42.575Z,101647.37
2018-04-17T07:24:11.192Z,101653.06
2018-04-17T07:26:39.834Z,101657.37
2018-04-17T07:29:08.459Z,101667.69
2018-04-17T07:31:37.105Z,101660.06
2018-04-17T07:34:05.716Z,101668.00
2018-04-17T07:36:34.351Z,101669.26
2018-04-17T07:39:02.960Z,101663.44
2018-04-17T07:41:31.596Z,101663.05
2018-04-17T07:44:00.212Z,101666.01
2018-04-17T07:46:28.877Z,101671.22
2018-04-17T07:49:06.350Z,101666.78
2018-04-17T07:51:35.053Z,101672.66
2018-04-17T07:54:03.713Z,101676.50
2018-04-17T07:56:32.335Z,101678.21
2018-04-17T07:59:00.968Z,101673.27
2018-04-17T08:01:29.614Z,101677.60
2018-04-17T08:03:58.268Z,101672.39
2018-04-17T08:06:26.917Z,101675.59
2018-04-17T08:08:55.563Z,101678.34
2018-04-17T08:11:24.195Z,101677.91
2018-04-17T08:13:52.880Z,101678.16
2018-04-17T08:16:21.521Z,101681.89
2018-04-17T08:18:50.197Z,101681.89
2018-04-17T08:21:18.818Z,101684.15
2018-04-17T08:23:47.466Z,101685.84
2018-04-17T08:26:16.102Z,101690.95
2018-04-17T08:28:44.747Z,101685.86
2018-04-17T08:31:13.383Z,101682.84
2018-04-17T08:33:42.019Z,101684.55
2018-04-17T08:36:10.652Z,101687.20
2018-04-17T08:38:39.294Z,101684.05
2018-04-17T08:41:07.935Z,101683.80
2018-04-17T08:43:36.530Z,101689.77
2018-04-17T08:46:05.188Z,101692.69
2018-04-17T08:48:33.811Z,101689.59
2018-04-17T08:51:02.450Z,101691.89
2018-04-17T08:53:31.081Z,101694.87
2018-04-17T08:55:59.716Z,101696.36
2018-04-17T08:58:28.327Z,101697.86
2018-04-17T09:00:56.977Z,101697.98
2018-04-17T09:03:25.583Z,101702.34
2018-04-17T09:05:54.219Z,101699.92
2018-04-17T09:08:22.825Z,101701.70
2018-04-17T09:10:51.471Z,101702.25
2018-04-17T09:13:20.098Z,101701.97
2018-04-17T09:15:48.730Z,101700.80
2018-04-17T09:18:17.366Z,101696.40
2018-04-17T09:20:46.003Z,101700.95
2018-04-17T09:23:14.611Z,101699.25
2018-04-17T09:25:43.262Z,101697.95
2018-04-17T09:28:12.820Z,101697.97
2018-04-17T09:30:41.435Z,101694.05
2018-04-17T09:33:10.128Z,101701.77
2018-04-17T09:35:38.908Z,101703.03
2018-04-17T09:38:07.547Z,101703.83
2018-04-17T09:40:36.181Z,101701.92
2018-04-17T09:43:04.885Z,101706.98
2018-04-17T09:45:33.427Z,101708.45
2018-04-17T09:48:02.063Z,101708.95
2018-04-17T09:50:30.922Z,101707.59
2018-04-17T09:52:59.511Z,101706.48
2018-04-17T09:55:28.118Z,101706.67
2018-04-17T09:57:56.753Z,101713.08
2018-04-17T10:00:25.367Z,101707.23
2018-04-17T10:02:54.022Z,101709.64
2018-04-17T10:05:22.630Z,101705.32
2018-04-17T10:07:51.309Z,101702.95
2018-04-17T10:10:19.919Z,101699.61
2018-04-17T10:12:48.574Z,101700.84
2018-04-17T10:15:17.181Z,101697.39
2018-04-17T10:17:45.836Z,101702.59
2018-04-17T10:20:15.329Z,101702.05
2018-04-17T10:22:43.939Z,101704.11
2018-04-17T10:25:12.584Z,101697.42
2018-04-17T10:27:41.183Z,101695.37
2018-04-17T10:30:09.836Z,101698.56
2018-04-17T10:32:38.441Z,101707.48
2018-04-17T10:35:07.092Z,101696.34
2018-04-17T10:37:35.722Z,101694.45
2018-04-17T10:40:04.380Z,101702.82
2018-04-17T10:42:33.008Z,101694.87
2018-04-17T10:45:01.656Z,101693.89
2018-04-17T10:47:30.275Z,101687.96
2018-04-17T10:49:58.923Z,101696.52
2018-04-17T10:52:27.564Z,101692.47
2018-04-17T10:54:56.231Z,101693.53
2018-04-17T10:57:24.841Z,101689.39
2018-04-17T10:59:53.492Z,101691.20
2018-04-17T11:02:22.124Z,101691.39
2018-04-17T11:04:50.842Z,101684.41
2018-04-17T11:07:19.384Z,101683.62
2018-04-17T11:09:48.007Z,101683.31
2018-04-17T11:12:16.642Z,101688.30
2018-04-17T11:14:45.280Z,101674.53
2018-04-17T11:17:13.953Z,101674.72
2018-04-17T11:19:42.566Z,101674.37
2018-04-17T11:22:11.203Z,101685.50
2018-04-17T11:24:39.817Z,101680.55
2018-04-17T11:27:08.469Z,101682.33
2018-04-17T11:29:37.104Z,101683.88
2018-04-17T11:32:05.755Z,101681.31
2018-04-17T11:34:34.404Z,101685.73
2018-04-17T11:37:03.039Z,101681.14
2018-04-17T11:39:31.659Z,101684.27
2018-04-17T11:42:00.312Z,101681.34
2018-04-17T11:44:28.928Z,101683.61
2018-04-17T11:46:57.567Z,101686.95
2018-04-17T11:49:26.201Z,101687.80
2018-04-17T11:51:54.886Z,101688.97
2018-04-17T11:54:23.503Z,101694.13
2018-04-17T11:56:52.129Z,101695.55
2018-04-17T11:59:20.772Z,101689.95
2018-04-17T12:01:51.637Z,101694.95
2018-04-17T12:04:20.258Z,101695.27
2018-04-17T12:06:48.875Z,101696.99
2018-04-17T12:09:17.521Z,101696.41
2018-04-17T12:11:46.139Z,101694.16
2018-04-17T12:14:14.788Z,101695.41
2018-04-17T12:16:43.427Z,101699.75
2018-04-17T12:19:12.068Z,101695.69
2018-04-17T12:21:40.695Z,101692.81
2018-04-17T12:24:09.340Z,101696.85
2018-04-17T12:26:37.959Z,101701.70
2018-04-17T12:29:06.601Z,101695.87
2018-04-17T12:31:35.227Z,101699.13
2018-04-17T12:34:03.911Z,101701.84
2018-04-17T12:36:32.487Z,101698.70
2018-04-17T12:39:01.131Z,101696.22
2018-04-17T12:41:29.763Z,101698.28
2018-04-17T12:43:58.419Z,101693.77
2018-04-17T12:46:27.043Z,101689.54
2018-04-17T12:48:55.699Z,101691.11
2018-04-17T12:51:24.317Z,101691.51
2018-04-17T12:53:52.969Z,101689.53
2018-04-17T12:56:21.604Z,101688.08
2018-04-17T12:58:50.243Z,101686.09
2018-04-17T13:01:18.892Z,101689.72
2018-04-17T13:03:47.517Z,101684.89
2018-04-17T13:06:16.160Z,101688.06
2018-04-17T13:08:44.838Z,101686.69
2018-04-17T13:11:13.472Z,101681.78
2018-04-17T13:13:42.106Z,101691.45
2018-04-17T13:16:10.765Z,101688.72
2018-04-17T13:18:39.424Z,101687.16
2018-04-17T13:21:08.084Z,101685.73
2018-04-17T13:23:36.698Z,101679.70
2018-04-17T13:26:05.363Z,101679.61
2018-04-17T13:28:33.967Z,101682.95
2018-04-17T13:31:02.632Z,101684.73
2018-04-17T13:33:31.239Z,101683.50
2018-04-17T13:35:59.911Z,101679.65
2018-04-17T13:38:28.526Z,101679.61
2018-04-17T13:40:57.131Z,101675.11
2018-04-17T13:43:25.793Z,101679.02
2018-04-17T13:45:54.408Z,101672.13
2018-04-17T13:48:23.059Z,101673.63
2018-04-17T13:50:52.591Z,101678.34
2018-04-17T13:53:21.223Z,101678.84
2018-04-17T13:55:49.861Z,101677.13
2018-04-17T13:58:18.525Z,101675.34
2018-04-17T14:00:47.169Z,101672.47
2018-04-17T14:03:16.493Z,101669.09
2018-04-17T14:05:45.060Z,101667.39
2018-04-17T14:08:17.016Z,101661.03
2018-04-17T14:10:45.618Z,101674.69
2018-04-17T14:13:14.271Z,101674.81
2018-04-17T14:15:43.507Z,101674.95
2018-04-17T14:18:12.079Z,101674.89
2018-04-17T14:20:40.741Z,101675.03
2018-04-17T14:23:09.398Z,101665.08
2018-04-17T14:25:38.367Z,101674.13
2018-04-17T14:28:07.245Z,101673.68
2018-04-17T14:30:36.743Z,101672.92
2018-04-17T14:33:05.686Z,101675.13
2018-04-17T14:35:34.887Z,101673.17
2018-04-17T14:38:03.509Z,101680.16
2018-04-17T14:40:33.828Z,101676.06
2018-04-17T14:43:03.225Z,101674.35
2018-04-17T14:45:36.340Z,101676.57
2018-04-17T14:48:11.821Z,101680.31
2018-04-17T14:50:41.299Z,101681.05
2018-04-17T14:53:09.966Z,101675.53
2018-04-17T14:55:39.255Z,101680.86
2018-04-17T14:58:13.755Z,101679.23
2018-04-17T15:00:44.619Z,101677.27
2018-04-17T15:03:15.375Z,101680.38
2018-04-17T15:05:50.027Z,101676.97
2018-04-17T15:08:26.260Z,101680.52
2018-04-17T15:10:57.668Z,101676.53
2018-04-17T15:13:30.751Z,101674.58
2018-04-17T15:16:00.844Z,101668.72
2018-04-17T15:18:29.816Z,101674.66
2018-04-17T15:21:00.201Z,101667.36
2018-04-17T15:26:16.558Z,101666.67
2018-04-17T15:28:45.798Z,101668.32
2018-04-17T15:31:14.725Z,101665.41
2018-04-17T15:36:36.877Z,101661.53
2018-04-17T15:39:08.227Z,101665.45
2018-04-17T15:41:40.885Z,101664.92
2018-04-17T15:44:10.121Z,101667.87
2018-04-17T15:49:36.555Z,101666.43
2018-04-17T15:52:12.602Z,101678.27
2018-04-17T15:54:48.335Z,101681.03
2018-04-17T15:57:16.962Z,101680.70
2018-04-17T15:59:45.758Z,101675.13
2018-04-17T16:02:14.374Z,101671.27
2018-04-17T16:04:43.016Z,101670.39
2018-04-17T16:07:11.611Z,101680.23
2018-04-17T16:09:45.168Z,101674.06
2018-04-17T16:12:14.494Z,101675.13
2018-04-17T16:14:43.571Z,101673.44
2018-04-17T16:17:12.056Z,101673.06
2018-04-17T16:19:41.107Z,101678.50
2018-04-17T16:22:09.799Z,101681.74
2018-04-17T16:24:38.690Z,101683.97
2018-04-17T16:27:09.679Z,101683.84
2018-04-17T16:29:39.916Z,101683.50
2018-04-17T16:32:08.761Z,101679.23
2018-04-17T16:34:37.587Z,101685.01
2018-04-17T16:37:06.397Z,101686.38
2018-04-17T16:39:39.606Z,101690.54
2018-04-17T16:42:08.670Z,101694.66
2018-04-17T16:44:37.231Z,101694.45
2018-04-17T16:47:06.292Z,101700.12
2018-04-17T16:49:34.971Z,101699.94
2018-04-17T16:52:04.081Z,101694.85
2018-04-17T16:54:33.826Z,101699.45
2018-04-17T16:57:02.996Z,101701.44
2018-04-17T16:59:33.119Z,101696.69
2018-04-17T17:02:14.036Z,101694.91
2018-04-17T17:04:42.904Z,101707.77
2018-04-17T17:07:11.641Z,101705.68
2018-04-17T17:09:40.620Z,101704.94
2018-04-17T17:12:09.234Z,101707.87
2018-04-17T17:14:37.840Z,101711.55
2018-04-17T17:17:08.576Z,101709.16
2018-04-17T17:19:37.184Z,101707.25
2018-04-17T17:22:05.826Z,101711.70
2018-04-17T17:24:34.430Z,101710.41
2018-04-17T17:27:03.123Z,101712.61
2018-04-17T17:29:31.672Z,101708.32
2018-04-17T17:32:00.965Z,101716.94
2018-04-17T17:34:30.945Z,101716.83
2018-04-17T17:37:00.206Z,101722.53
2018-04-17T17:39:29.535Z,101722.63
2018-04-17T17:41:58.529Z,101736.16
2018-04-17T17:44:28.741Z,101738.55
2018-04-17T17:46:59.045Z,101744.69
2018-04-17T17:49:27.842Z,101747.16
2018-04-17T17:51:56.703Z,101754.83
2018-04-17T17:54:31.549Z,101760.16
2018-04-17T17:57:03.643Z,101759.39
2018-04-17T17:59:43.018Z,101771.98
2018-04-17T18:02:11.954Z,101772.13
2018-04-17T18:04:42.121Z,101780.39
2018-04-17T18:07:10.985Z,101774.30
2018-04-17T18:09:43.709Z,101784.11
2018-04-17T18:12:29.733Z,101787.94
2018-04-17T18:17:47.377Z,101799.41
2018-04-17T18:20:24.029Z,101803.94
2018-04-17T18:22:52.916Z,101813.94
2018-04-17T18:25:21.904Z,101816.77
2018-04-17T18:27:51.930Z,101818.58
2018-04-17T18:30:22.357Z,101812.63
2018-04-17T18:32:51.271Z,101826.53
2018-04-17T18:35:21.105Z,101827.77
2018-04-17T18:37:51.328Z,101830.09
2018-04-17T18:40:21.650Z,101834.58
2018-04-17T18:42:50.556Z,101835.23
2018-04-17T18:45:20.405Z,101840.83
2018-04-17T18:47:50.306Z,101841.88
2018-04-17T18:50:19.206Z,101847.95
2018-04-17T18:52:48.048Z,101849.98
2018-04-17T18:55:16.969Z,101856.78
2018-04-17T18:57:51.022Z,101860.58
2018-04-17T19:00:20.876Z,101865.23
2018-04-17T19:02:50.932Z,101871.42
2018-04-17T19:05:20.293Z,101874.75
2018-04-17T19:07:50.478Z,101873.19
2018-04-17T19:10:20.595Z,101881.55
2018-04-17T19:12:49.564Z,101888.46
2018-04-17T19:15:20.867Z,101883.27
2018-04-17T19:17:49.802Z,101885.03
2018-04-17T19:20:18.654Z,101886.23
2018-04-17T19:22:47.528Z,101879.70
2018-04-17T19:25:16.365Z,101884.50
2018-04-17T19:27:45.289Z,101889.54
2018-04-17T19:30:14.161Z,101888.58
2018-04-17T19:32:43.723Z,101891.84
2018-04-17T19:35:17.197Z,101899.88
2018-04-17T19:37:46.121Z,101899.77
2018-04-17T19:40:15.330Z,101899.12
2018-04-17T19:42:44.656Z,101898.89
2018-04-17T19:45:13.904Z,101914.38
2018-04-17T19:47:43.283Z,101906.55
2018-04-17T19:50:12.214Z,101911.26
2018-04-17T19:52:40.916Z,101914.63
2018-04-17T19:55:10.022Z,101907.39
2018-04-17T19:57:38.975Z,101906.25
2018-04-17T20:00:07.812Z,101906.41
2018-04-17T20:02:37.120Z,101903.44
2018-04-17T20:05:08.729Z,101907.08
2018-04-17T20:07:37.603Z,101905.36
2018-04-17T20:10:10.272Z,101898.91
2018-04-17T20:12:39.219Z,101901.98
2018-04-17T20:15:10.383Z,101909.55
2018-04-17T20:17:44.910Z,101898.78
2018-04-17T20:20:16.462Z,101900.34
2018-04-17T20:22:46.481Z,101907.63
2018-04-17T20:25:18.203Z,101908.37
2018-04-17T20:27:47.096Z,101913.85
2018-04-17T20:30:16.064Z,101914.83
2018-04-17T20:32:47.243Z,101917.61
2018-04-17T20:35:16.198Z,101917.38
2018-04-17T20:37:47.654Z,101917.30
2018-04-17T20:40:18.139Z,101922.77
2018-04-17T20:42:47.104Z,101928.52
2018-04-17T20:45:19.043Z,101932.34
2018-04-17T20:47:48.001Z,101938.02
2018-04-17T20:50:34.599Z,101939.94
2018-04-17T20:53:03.642Z,101950.73
2018-04-17T20:55:32.773Z,101954.11
2018-04-17T20:58:01.540Z,101952.65
2018-04-17T21:00:39.599Z,101952.63
2018-04-17T21:03:08.765Z,101949.47
2018-04-17T21:05:39.119Z,101951.16
2018-04-17T21:08:09.517Z,101951.45
2018-04-17T21:10:41.186Z,101954.43
2018-04-17T21:13:13.114Z,101951.22
2018-04-17T21:15:42.059Z,101949.77
2018-04-17T21:20:50.319Z,101952.33
2018-04-17T21:23:18.935Z,101949.95
2018-04-17T21:25:47.592Z,101950.59
2018-04-17T21:28:16.727Z,101952.03
2018-04-17T21:30:45.333Z,101951.27
2018-04-17T21:33:13.964Z,101948.68
2018-04-17T21:35:42.567Z,101950.55
2018-04-17T21:38:11.215Z,101952.88
2018-04-17T21:40:39.832Z,101951.83
2018-04-17T21:43:08.466Z,101954.12
2018-04-17T21:45:37.072Z,101952.63
2018-04-17T21:48:05.713Z,101958.98
2018-04-17T21:50:34.341Z,101962.41
2018-04-17T21:53:02.985Z,101964.98
2018-04-17T21:55:31.592Z,101963.52
2018-04-17T21:58:00.231Z,101958.23
2018-04-17T22:00:28.840Z,101965.92
2018-04-17T22:02:57.481Z,101965.34
2018-04-17T22:05:26.094Z,101978.84
2018-04-17T22:07:54.740Z,101979.37
2018-04-17T22:10:23.355Z,101984.39
2018-04-17T22:12:51.971Z,101988.04
2018-04-17T22:15:20.611Z,101989.53
2018-04-17T22:17:49.216Z,101991.03
2018-04-17T22:20:17.865Z,101993.82
2018-04-17T22:22:46.460Z,102000.16
2018-04-17T22:25:15.104Z,101991.48
2018-04-17T22:27:43.710Z,101993.41
2018-04-17T22:30:12.348Z,101996.23
2018-04-17T22:32:40.961Z,102001.19
2018-04-17T22:35:09.615Z,102003.59
2018-04-17T22:37:38.219Z,102004.50
2018-04-17T22:40:06.855Z,102010.97
2018-04-17T22:42:35.468Z,102011.16
2018-04-17T22:45:04.107Z,102012.58
2018-04-17T22:47:32.705Z,102019.78
2018-04-17T22:50:01.374Z,102022.70
2018-04-17T22:52:29.974Z,102029.23
2018-04-17T22:54:58.617Z,102033.59
2018-04-17T22:57:27.223Z,102036.16
2018-04-17T22:59:55.859Z,102036.98
2018-04-17T23:02:24.493Z,102026.23
2018-04-17T23:04:53.097Z,102035.34
2018-04-17T23:07:21.736Z,102038.40
2018-04-17T23:09:50.349Z,102037.09
2018-04-17T23:12:18.999Z,102052.70
2018-04-17T23:14:47.616Z,102053.72
2018-04-17T23:17:16.251Z,102046.21
2018-04-17T23:19:44.856Z,102053.92
2018-04-17T23:22:16.403Z,102051.70
2018-04-17T23:24:45.011Z,102052.45
2018-04-17T23:27:13.659Z,102055.73
2018-04-17T23:29:42.259Z,102056.86
2018-04-17T23:32:10.895Z,102052.12
2018-04-17T23:34:39.498Z,102053.16
2018-04-17T23:37:08.135Z,102050.23
2018-04-17T23:39:36.747Z,102049.52
2018-04-17T23:42:05.538Z,102051.03
2018-04-17T23:44:34.148Z,102047.62
2018-04-17T23:47:02.792Z,102041.19
2018-04-17T23:49:31.399Z,102044.34
2018-04-17T23:52:00.986Z,102040.13
2018-04-17T23:54:29.591Z,102043.39
2018-04-17T23:56:58.195Z,102040.39
2018-04-17T23:59:31.038Z,102042.31
